Time;durP1;ratioP1;P1;durP2;ratioP2;P2;SDS_P1;SDS_P2;PMS_P1;PMS_P2;Temp;Humidity;BMP_temperature;BMP_pressure;BME280_temperature;BME280_humidity;BME280_pressure;Samples;Min_cycle;Max_cycle;Signal;HPM_P1;HPM_P2
2023/08/01 00:01:06;;;;;;;8.80;1.30;;;16.80;99.90;;;;;;5032459;28;20029;-81
2023/08/01 00:03:32;;;;;;;5.57;1.60;;;16.80;99.90;;;;;;5032420;28;20028;-83
2023/08/01 00:05:58;;;;;;;8.70;1.17;;;16.70;99.90;;;;;;5032035;28;20087;-83
2023/08/01 00:08:23;;;;;;;10.35;1.30;;;16.70;99.90;;;;;;5030835;28;20028;-80
2023/08/01 00:10:49;;;;;;;4.18;1.10;;;16.70;99.90;;;;;;5052080;28;20505;-83
2023/08/01 00:13:15;;;;;;;3.03;0.90;;;16.70;99.90;;;;;;5051356;28;20501;-84
2023/08/01 00:15:40;;;;;;;7.03;1.08;;;16.70;99.90;;;;;;5036678;28;20017;-83
2023/08/01 00:18:08;;;;;;;5.40;1.00;;;16.80;99.90;;;;;;5030955;28;20036;-83
2023/08/01 00:20:34;;;;;;;5.47;1.35;;;16.70;99.90;;;;;;5039482;28;20523;-82
2023/08/01 00:23:00;;;;;;;2.58;0.95;;;16.70;99.90;;;;;;5034733;28;20032;-81
2023/08/01 00:25:26;;;;;;;3.47;0.98;;;16.70;99.90;;;;;;5034516;28;20028;-78
2023/08/01 00:27:52;;;;;;;7.32;1.38;;;16.80;99.90;;;;;;5040208;28;20025;-79
2023/08/01 00:30:18;;;;;;;2.70;0.82;;;16.80;99.90;;;;;;5039970;28;20516;-81
2023/08/01 00:32:44;;;;;;;7.07;1.38;;;16.80;99.90;;;;;;5045729;28;20041;-82
2023/08/01 00:35:10;;;;;;;2.40;0.93;;;16.70;99.90;;;;;;5042899;28;20082;-80
2023/08/01 00:37:35;;;;;;;2.38;0.80;;;16.70;99.90;;;;;;5034552;28;20079;-82
2023/08/01 00:40:01;;;;;;;4.32;1.20;;;16.70;99.90;;;;;;5031747;28;20029;-81
2023/08/01 00:42:27;;;;;;;3.00;1.00;;;16.60;99.90;;;;;;5031832;28;20026;-80
2023/08/01 00:44:54;;;;;;;2.67;0.98;;;16.60;99.90;;;;;;5031558;28;20410;-78
2023/08/01 00:47:20;;;;;;;2.70;0.60;;;16.50;99.90;;;;;;5030319;28;20037;-80
2023/08/01 00:49:46;;;;;;;2.20;1.45;;;16.50;99.90;;;;;;5030120;28;20120;-82
2023/08/01 00:52:12;;;;;;;4.60;1.08;;;16.40;99.90;;;;;;5031017;28;20047;-82
2023/08/01 00:54:38;;;;;;;3.67;1.25;;;16.40;99.90;;;;;;5033967;28;20060;-81
2023/08/01 00:57:05;;;;;;;9.45;1.05;;;16.30;99.90;;;;;;5038713;28;20025;-82
2023/08/01 00:59:31;;;;;;;1.88;0.85;;;16.30;99.90;;;;;;5033818;28;20056;-78
2023/08/01 01:01:58;;;;;;;6.13;1.05;;;16.30;99.90;;;;;;5051546;28;20108;-82
2023/08/01 01:04:23;;;;;;;4.05;0.77;;;16.30;99.90;;;;;;5051770;28;20032;-79
2023/08/01 01:06:59;;;;;;;3.50;1.02;;;16.30;99.90;;;;;;5031763;28;20041;-83
2023/08/01 01:09:29;;;;;;;5.10;1.02;;;16.30;99.90;;;;;;5047361;28;20025;-81
2023/08/01 01:11:54;;;;;;;2.08;0.70;;;16.20;99.90;;;;;;5047189;28;20073;-80
2023/08/01 01:14:20;;;;;;;1.92;0.85;;;16.20;99.90;;;;;;5043041;28;20064;-79
2023/08/01 01:16:45;;;;;;;4.30;0.98;;;16.10;99.90;;;;;;5048050;28;20056;-79
2023/08/01 01:19:11;;;;;;;1.67;1.02;;;16.10;99.90;;;;;;5041466;28;20488;-81
2023/08/01 01:21:39;;;;;;;3.83;1.02;;;16.10;99.90;;;;;;5039864;28;20555;-81
2023/08/01 01:24:07;;;;;;;2.97;1.00;;;16.10;99.90;;;;;;5033588;28;20040;-81
2023/08/01 01:26:33;;;;;;;5.93;1.23;;;16.00;99.90;;;;;;5029666;28;20033;-81
2023/08/01 01:29:01;;;;;;;2.40;1.02;;;16.00;99.90;;;;;;5029781;28;20036;-77
2023/08/01 01:31:27;;;;;;;3.17;1.30;;;16.00;99.90;;;;;;5029564;28;20042;-83
2023/08/01 01:33:54;;;;;;;2.55;0.70;;;16.00;99.90;;;;;;5030907;28;20152;-81
2023/08/01 01:36:19;;;;;;;3.20;1.17;;;16.00;99.90;;;;;;5031056;28;20553;-81
2023/08/01 01:38:45;;;;;;;5.75;0.93;;;16.00;99.90;;;;;;5029186;28;20168;-81
2023/08/01 01:41:11;;;;;;;4.63;1.23;;;16.00;99.90;;;;;;5029351;28;20030;-82
2023/08/01 01:43:37;;;;;;;4.00;1.15;;;16.00;99.90;;;;;;5029346;28;20429;-83
2023/08/01 01:46:03;;;;;;;3.63;0.70;;;16.00;99.90;;;;;;5044615;28;20040;-80
2023/08/01 01:48:29;;;;;;;2.47;0.80;;;16.00;99.90;;;;;;5041868;28;20036;-84
2023/08/01 01:50:55;;;;;;;2.25;0.80;;;15.90;99.90;;;;;;5041623;28;20104;-80
2023/08/01 01:53:20;;;;;;;3.78;1.00;;;16.00;99.90;;;;;;5039777;28;20538;-83
2023/08/01 01:55:46;;;;;;;;;;;16.00;99.90;;;;;;5039311;28;20028;-77
2023/08/01 01:58:11;;;;;;;4.97;1.00;;;15.90;99.90;;;;;;5043488;28;20419;-80
2023/08/01 02:00:37;;;;;;;1.67;0.63;;;15.90;99.90;;;;;;5037514;28;20063;-80
2023/08/01 02:03:03;;;;;;;2.45;0.70;;;15.90;99.90;;;;;;5042253;28;20029;-81
2023/08/01 02:05:29;;;;;;;3.13;0.93;;;15.90;99.90;;;;;;5037480;28;20387;-79
2023/08/01 02:07:55;;;;;;;7.30;0.85;;;15.90;99.90;;;;;;5037639;28;20032;-82
2023/08/01 02:10:21;;;;;;;10.82;1.65;;;15.90;99.90;;;;;;5038505;28;20465;-80
2023/08/01 02:12:46;;;;;;;3.83;1.00;;;15.90;99.90;;;;;;5037525;28;20060;-81
2023/08/01 02:15:12;;;;;;;11.73;1.02;;;15.90;99.90;;;;;;5042564;28;20025;-81
2023/08/01 02:17:39;;;;;;;4.32;1.00;;;15.90;99.90;;;;;;5037053;28;20025;-83
2023/08/01 02:20:06;;;;;;;2.65;0.90;;;15.80;99.90;;;;;;5037490;28;20026;-82
2023/08/01 02:22:32;;;;;;;2.60;1.08;;;15.80;99.90;;;;;;5039472;28;20036;-82
2023/08/01 02:24:58;;;;;;;1.98;1.00;;;15.70;99.90;;;;;;5038977;28;20021;-83
2023/08/01 02:27:23;;;;;;;3.30;0.95;;;15.70;99.90;;;;;;5038347;28;20055;-83
2023/08/01 02:29:50;;;;;;;3.85;0.73;;;15.80;99.90;;;;;;5040956;28;20025;-84
2023/08/01 02:32:16;;;;;;;3.30;0.85;;;15.80;99.90;;;;;;5038214;28;20017;-84
2023/08/01 02:34:42;;;;;;;2.15;0.77;;;15.90;99.90;;;;;;5039505;28;20084;-81
2023/08/01 02:37:08;;;;;;;3.28;0.80;;;15.80;99.90;;;;;;5037627;28;20112;-84
2023/08/01 02:39:34;;;;;;;4.65;1.25;;;15.90;99.90;;;;;;5040173;28;20104;-82
2023/08/01 02:42:00;;;;;;;2.50;1.10;;;15.90;99.90;;;;;;5039350;28;20051;-83
2023/08/01 02:44:25;;;;;;;3.28;0.80;;;15.80;99.90;;;;;;5038642;28;20540;-80
2023/08/01 02:46:51;;;;;;;3.03;0.75;;;15.80;99.90;;;;;;5039433;28;20529;-81
2023/08/01 02:49:17;;;;;;;3.97;0.65;;;15.80;99.90;;;;;;5028468;28;20057;-83
2023/08/01 02:51:43;;;;;;;3.50;1.00;;;15.80;99.90;;;;;;5030149;28;20025;-86
2023/08/01 02:54:08;;;;;;;3.22;0.60;;;15.80;99.90;;;;;;5030117;28;20413;-84
2023/08/01 02:56:34;;;;;;;4.50;1.00;;;15.70;99.90;;;;;;5030279;28;20034;-86
2023/08/01 02:59:00;;;;;;;4.68;1.00;;;15.70;99.90;;;;;;5037971;28;20033;-87
2023/08/01 03:01:25;;;;;;;3.42;0.70;;;15.70;99.90;;;;;;5051794;28;20028;-86
2023/08/01 03:03:51;;;;;;;2.33;0.75;;;15.70;99.90;;;;;;5050143;28;20099;-88
2023/08/01 03:06:18;;;;;;;5.97;1.10;;;15.70;99.90;;;;;;5052012;28;20535;-88
2023/08/01 03:08:43;;;;;;;2.88;0.93;;;15.60;99.90;;;;;;5051769;28;20028;-84
2023/08/01 03:11:09;;;;;;;3.17;0.65;;;15.70;99.90;;;;;;5050984;28;20032;-87
2023/08/01 03:13:35;;;;;;;5.00;1.35;;;15.70;99.90;;;;;;5050918;28;20479;-86
2023/08/01 03:16:00;;;;;;;5.10;0.88;;;15.70;99.90;;;;;;5052485;28;20047;-83
2023/08/01 03:18:26;;;;;;;2.75;0.88;;;15.70;99.90;;;;;;5053933;28;20029;-86
2023/08/01 03:20:52;;;;;;;3.78;1.13;;;15.70;99.90;;;;;;5055233;28;20485;-85
2023/08/01 03:23:17;;;;;;;2.70;1.02;;;15.70;99.90;;;;;;5055253;28;20025;-87
2023/08/01 03:25:43;;;;;;;2.28;0.80;;;15.70;99.90;;;;;;5055879;28;20031;-89
2023/08/01 03:28:09;;;;;;;2.65;0.75;;;15.80;99.90;;;;;;5054247;28;20102;-87
2023/08/01 03:30:35;;;;;;;9.23;1.65;;;15.80;99.90;;;;;;5053753;28;20032;-85
2023/08/01 03:33:02;;;;;;;4.70;1.35;;;15.80;99.90;;;;;;5054625;28;20033;-84
2023/08/01 03:35:28;;;;;;;4.97;1.35;;;15.80;99.90;;;;;;5053565;28;20033;-87
2023/08/01 03:37:53;;;;;;;4.60;1.20;;;15.80;99.90;;;;;;5038996;28;20453;-86
2023/08/01 03:40:19;;;;;;;2.17;0.80;;;15.80;99.90;;;;;;5033542;28;20097;-86
2023/08/01 03:42:45;;;;;;;4.43;1.45;;;15.80;99.90;;;;;;5034489;28;20534;-85
2023/08/01 03:45:11;;;;;;;3.53;1.33;;;15.80;99.90;;;;;;5033334;28;20172;-86
2023/08/01 03:47:36;;;;;;;1.77;0.77;;;15.80;99.90;;;;;;5034880;28;20482;-86
2023/08/01 03:50:03;;;;;;;3.70;1.10;;;15.80;99.90;;;;;;5034516;28;20021;-86
2023/08/01 03:52:28;;;;;;;9.10;0.90;;;15.90;99.90;;;;;;5034184;28;20549;-83
2023/08/01 03:54:55;;;;;;;6.95;1.17;;;16.00;99.90;;;;;;5047614;28;20037;-86
2023/08/01 03:57:21;;;;;;;5.00;0.75;;;16.00;99.90;;;;;;5053846;28;20029;-85
2023/08/01 03:59:46;;;;;;;5.28;1.13;;;16.10;99.90;;;;;;5054044;28;20100;-86
2023/08/01 04:02:12;;;;;;;5.63;0.90;;;16.10;99.90;;;;;;5052726;28;20409;-86
2023/08/01 04:04:38;;;;;;;4.05;1.02;;;16.10;99.90;;;;;;5051329;28;20371;-85
2023/08/01 04:07:04;;;;;;;6.80;1.10;;;16.10;99.90;;;;;;5049403;28;20043;-85
2023/08/01 04:09:30;;;;;;;12.50;1.92;;;16.20;99.90;;;;;;5049389;28;20067;-85
2023/08/01 04:11:56;;;;;;;4.10;0.88;;;16.20;99.90;;;;;;5049166;28;20073;-86
2023/08/01 04:14:22;;;;;;;2.65;0.82;;;16.30;99.90;;;;;;5032899;28;20034;-86
2023/08/01 04:16:48;;;;;;;5.55;0.95;;;16.40;99.90;;;;;;5036471;28;20087;-85
2023/08/01 04:19:14;;;;;;;6.63;1.38;;;16.50;99.90;;;;;;5038133;28;20036;-85
2023/08/01 04:21:40;;;;;;;4.63;1.17;;;16.60;99.90;;;;;;5041724;28;20025;-85
2023/08/01 04:24:05;;;;;;;2.25;0.80;;;16.70;99.90;;;;;;5053422;28;20049;-85
2023/08/01 04:26:31;;;;;;;7.97;0.80;;;16.80;99.90;;;;;;5051662;28;20497;-84
2023/08/01 04:28:57;;;;;;;3.92;1.00;;;17.00;99.90;;;;;;5051938;28;20031;-84
2023/08/01 04:31:22;;;;;;;4.13;1.08;;;17.10;99.90;;;;;;5048045;28;20029;-84
2023/08/01 04:33:48;;;;;;;2.65;0.73;;;17.20;99.90;;;;;;5044660;28;20029;-86
2023/08/01 04:36:14;;;;;;;3.35;0.80;;;17.20;99.90;;;;;;5041309;28;20037;-86
2023/08/01 04:38:39;;;;;;;3.63;1.20;;;17.20;99.90;;;;;;5043970;28;20443;-85
2023/08/01 04:41:05;;;;;;;14.18;1.20;;;17.30;99.90;;;;;;5033664;28;20037;-86
2023/08/01 04:43:31;;;;;;;3.25;0.90;;;17.40;99.90;;;;;;5031769;28;20044;-86
2023/08/01 04:45:56;;;;;;;5.70;0.88;;;17.60;99.90;;;;;;5032860;28;20163;-86
2023/08/01 04:48:22;;;;;;;7.90;1.20;;;17.80;99.90;;;;;;5032786;28;20045;-86
2023/08/01 04:50:48;;;;;;;2.45;1.08;;;17.90;99.90;;;;;;5032734;28;20119;-83
2023/08/01 04:53:13;;;;;;;2.15;0.90;;;18.10;99.90;;;;;;5031512;28;20152;-83
2023/08/01 04:55:40;;;;;;;3.08;0.73;;;18.30;99.90;;;;;;5031701;28;20033;-81
2023/08/01 04:58:06;;;;;;;4.18;1.00;;;18.40;99.90;;;;;;5031840;28;20022;-82
2023/08/01 05:00:31;;;;;;;8.70;0.80;;;18.60;99.90;;;;;;5031457;28;20040;-82
2023/08/01 05:02:57;;;;;;;2.95;1.00;;;18.70;99.90;;;;;;5030736;28;20044;-82
2023/08/01 05:05:23;;;;;;;6.65;0.82;;;18.90;99.90;;;;;;5029283;28;20032;-82
2023/08/01 05:07:48;;;;;;;5.43;0.90;;;19.00;99.90;;;;;;5029153;28;20037;-82
2023/08/01 05:10:14;;;;;;;5.97;1.10;;;19.10;99.90;;;;;;5030425;28;20402;-82
2023/08/01 05:12:40;;;;;;;4.20;1.00;;;19.20;99.90;;;;;;5029640;28;20049;-81
2023/08/01 05:15:06;;;;;;;4.45;1.00;;;19.30;99.90;;;;;;5029230;28;20048;-82
2023/08/01 05:17:32;;;;;;;8.70;1.48;;;19.40;99.90;;;;;;5030504;28;20060;-83
2023/08/01 05:19:57;;;;;;;3.60;1.05;;;19.70;99.90;;;;;;5031949;28;20087;-82
2023/08/01 05:22:23;;;;;;;5.40;1.23;;;19.80;99.90;;;;;;5030396;28;20036;-82
2023/08/01 05:24:48;;;;;;;14.00;1.20;;;20.00;99.90;;;;;;5031322;28;20060;-82
2023/08/01 05:27:14;;;;;;;1.58;0.63;;;20.10;99.90;;;;;;5031369;28;20475;-82
2023/08/01 05:29:40;;;;;;;4.65;0.80;;;20.30;99.90;;;;;;5030846;28;20497;-81
2023/08/01 05:32:06;;;;;;;3.92;0.88;;;20.60;99.90;;;;;;5031192;28;20065;-82
2023/08/01 05:34:31;;;;;;;4.18;1.15;;;20.70;99.90;;;;;;5030047;28;20021;-81
2023/08/01 05:36:57;;;;;;;5.82;0.82;;;20.90;99.70;;;;;;5031841;28;20025;-82
2023/08/01 05:39:23;;;;;;;8.77;1.13;;;21.10;99.00;;;;;;5030535;28;20084;-82
2023/08/01 05:41:50;;;;;;;3.17;0.80;;;21.40;97.60;;;;;;5030926;28;20033;-82
2023/08/01 05:44:15;;;;;;;3.97;0.98;;;21.70;96.00;;;;;;5031186;28;20022;-81
2023/08/01 05:46:41;;;;;;;2.63;0.80;;;22.00;92.80;;;;;;5031285;28;20051;-82
2023/08/01 05:49:07;;;;;;;4.65;1.10;;;22.30;90.80;;;;;;5029519;28;20458;-82
2023/08/01 05:51:32;;;;;;;3.47;0.98;;;22.60;89.40;;;;;;5030818;28;20099;-82
2023/08/01 05:53:58;;;;;;;2.72;0.95;;;22.80;88.20;;;;;;5029354;28;20025;-83
2023/08/01 05:56:23;;;;;;;2.90;0.90;;;23.00;85.80;;;;;;5030664;28;20063;-81
2023/08/01 05:58:50;;;;;;;3.08;0.82;;;23.20;82.00;;;;;;5029515;28;20017;-81
2023/08/01 06:01:16;;;;;;;5.47;1.00;;;23.30;78.50;;;;;;5029201;28;20032;-82
2023/08/01 06:03:42;;;;;;;4.35;1.17;;;23.80;76.20;;;;;;5029781;28;20029;-83
2023/08/01 06:06:08;;;;;;;4.38;1.33;;;24.20;74.50;;;;;;5029574;28;20040;-83
2023/08/01 06:08:34;;;;;;;5.30;1.13;;;25.00;64.50;;;;;;5029357;28;20051;-80
2023/08/01 06:11:00;;;;;;;10.75;1.20;;;26.10;55.50;;;;;;5030371;28;20532;-82
2023/08/01 06:13:25;;;;;;;20.92;1.33;;;26.80;52.00;;;;;;5030233;28;20124;-82
2023/08/01 06:15:51;;;;;;;4.55;1.17;;;27.30;47.40;;;;;;5030417;28;20037;-82
2023/08/01 06:18:19;;;;;;;1.85;0.70;;;27.40;45.90;;;;;;5030422;28;20042;-82
2023/08/01 06:20:44;;;;;;;4.38;1.10;;;27.90;44.40;;;;;;5029010;28;20033;-83
2023/08/01 06:23:10;;;;;;;5.53;0.90;;;29.10;42.30;;;;;;5028793;28;20125;-82
2023/08/01 06:25:35;;;;;;;4.50;1.20;;;30.10;38.80;;;;;;5029526;28;20076;-84
2023/08/01 06:28:01;;;;;;;5.60;1.10;;;30.80;36.90;;;;;;5029747;28;20412;-81
2023/08/01 06:30:27;;;;;;;2.08;1.02;;;31.10;35.20;;;;;;5030116;28;20025;-82
2023/08/01 06:32:52;;;;;;;5.90;0.90;;;31.60;33.90;;;;;;5029924;28;20034;-84
2023/08/01 06:35:18;;;;;;;3.45;1.00;;;32.00;32.90;;;;;;5029882;28;20036;-82
2023/08/01 06:37:43;;;;;;;1.92;0.90;;;32.20;32.10;;;;;;5029728;28;20030;-83
2023/08/01 06:40:10;;;;;;;3.63;1.33;;;32.70;32.10;;;;;;5029741;28;20395;-82
2023/08/01 06:42:35;;;;;;;2.97;1.30;;;32.80;31.10;;;;;;5028449;28;20026;-82
2023/08/01 06:45:01;;;;;;;5.28;1.45;;;33.20;30.70;;;;;;5028713;28;20175;-83
2023/08/01 06:47:26;;;;;;;4.35;1.20;;;33.40;30.80;;;;;;5029723;28;20049;-83
2023/08/01 06:49:52;;;;;;;3.50;1.23;;;33.70;30.00;;;;;;5029201;28;20520;-83
2023/08/01 06:52:18;;;;;;;3.75;1.00;;;33.80;30.00;;;;;;5029281;28;20053;-83
2023/08/01 06:54:43;;;;;;;5.82;2.00;;;34.00;29.70;;;;;;5028537;28;20028;-82
2023/08/01 06:57:09;;;;;;;5.20;1.42;;;34.20;29.40;;;;;;5029395;28;20105;-82
2023/08/01 06:59:35;;;;;;;2.58;1.42;;;34.10;29.90;;;;;;5029654;28;20029;-82
2023/08/01 07:02:01;;;;;;;3.28;1.25;;;34.30;29.60;;;;;;5028133;28;20034;-83
2023/08/01 07:04:27;;;;;;;7.30;1.38;;;34.20;30.00;;;;;;5029755;28;20078;-83
2023/08/01 07:06:52;;;;;;;6.07;1.40;;;34.00;29.80;;;;;;5029539;28;20049;-83
2023/08/01 07:09:18;;;;;;;2.53;1.17;;;33.80;30.30;;;;;;5028486;28;20028;-83
2023/08/01 07:11:44;;;;;;;4.65;1.40;;;33.80;30.20;;;;;;5028091;28;20770;-82
2023/08/01 07:14:10;;;;;;;8.18;1.98;;;34.20;30.40;;;;;;5028524;28;20022;-82
2023/08/01 07:16:35;;;;;;;3.42;1.60;;;34.50;29.30;;;;;;5029412;28;20040;-82
2023/08/01 07:19:01;;;;;;;6.80;1.45;;;34.20;29.70;;;;;;5029447;28;20021;-83
2023/08/01 07:21:28;;;;;;;5.15;1.33;;;33.40;29.60;;;;;;5029525;28;20025;-82
2023/08/01 07:23:54;;;;;;;3.28;1.52;;;33.20;31.20;;;;;;5029216;28;20057;-81
2023/08/01 07:26:20;;;;;;;3.28;1.38;;;33.80;31.00;;;;;;5028968;28;20572;-81
2023/08/01 07:28:45;;;;;;;9.75;2.20;;;34.20;29.80;;;;;;5028815;28;20029;-83
2023/08/01 07:31:11;;;;;;;10.45;1.80;;;34.20;29.60;;;;;;5028846;28;20048;-83
2023/08/01 07:33:37;;;;;;;4.35;1.48;;;34.40;30.00;;;;;;5027886;28;20022;-82
2023/08/01 07:36:03;;;;;;;3.25;1.42;;;34.10;29.80;;;;;;5027816;28;20025;-82
2023/08/01 07:38:31;;;;;;;3.15;1.30;;;34.00;30.70;;;;;;5029145;28;20022;-83
2023/08/01 07:41:01;;;;;;;8.25;1.88;;;34.30;30.00;;;;;;5029081;28;20107;-82
2023/08/01 07:43:27;;;;;;;3.78;1.63;;;34.60;30.60;;;;;;5027897;28;20026;-83
2023/08/01 07:45:57;;;;;;;7.50;2.03;;;35.00;29.60;;;;;;5028653;28;20115;-82
2023/08/01 07:48:23;;;;;;;7.82;1.70;;;34.80;29.60;;;;;;5029074;28;20026;-83
2023/08/01 07:50:49;;;;;;;6.07;1.80;;;34.20;30.10;;;;;;5028782;28;20484;-82
2023/08/01 07:53:14;;;;;;;4.25;1.50;;;33.70;31.30;;;;;;5028809;28;20101;-83
2023/08/01 07:55:41;;;;;;;10.25;2.58;;;33.50;31.70;;;;;;5027696;28;20508;-81
2023/08/01 07:58:06;;;;;;;6.15;1.75;;;33.80;31.90;;;;;;5029168;28;20359;-82
2023/08/01 08:00:35;;;;;;;2.30;1.52;;;34.30;30.90;;;;;;5027670;28;20032;-82
2023/08/01 08:03:00;;;;;;;5.63;1.88;;;34.50;30.70;;;;;;5031467;28;20113;-84
2023/08/01 08:05:26;;;;;;;2.60;1.58;;;35.00;29.60;;;;;;5032519;28;20453;-80
2023/08/01 08:07:52;;;;;;;5.15;1.60;;;35.20;29.30;;;;;;5030920;28;20025;-82
2023/08/01 08:10:17;;;;;;;7.57;2.15;;;35.50;29.40;;;;;;5032161;28;20025;-82
2023/08/01 08:12:43;;;;;;;3.03;1.75;;;35.30;29.90;;;;;;5032119;28;20111;-82
2023/08/01 08:15:09;;;;;;;2.83;1.48;;;35.20;29.40;;;;;;5030964;28;20026;-83
2023/08/01 08:17:34;;;;;;;4.25;1.65;;;35.50;28.90;;;;;;5031814;28;20032;-83
2023/08/01 08:20:00;;;;;;;2.90;1.70;;;35.70;27.90;;;;;;5041571;28;20029;-83
2023/08/01 08:22:25;;;;;;;6.15;1.75;;;35.40;28.30;;;;;;5036697;28;20033;-82
2023/08/01 08:24:51;;;;;;;4.45;1.60;;;35.50;28.70;;;;;;5031263;28;20033;-83
2023/08/01 08:27:17;;;;;;;3.72;1.77;;;35.50;28.30;;;;;;5031833;28;20073;-83
2023/08/01 08:29:43;;;;;;;4.13;1.73;;;35.00;29.00;;;;;;5030826;28;20033;-82
2023/08/01 08:32:08;;;;;;;4.18;1.42;;;34.70;29.80;;;;;;5042906;28;20039;-82
2023/08/01 08:34:34;;;;;;;4.85;1.67;;;34.80;29.80;;;;;;5040507;28;20104;-83
2023/08/01 08:37:00;;;;;;;3.08;1.58;;;35.20;28.90;;;;;;5039046;28;20021;-83
2023/08/01 08:39:25;;;;;;;7.90;1.75;;;35.60;29.20;;;;;;5049639;28;20052;-83
2023/08/01 08:41:52;;;;;;;3.45;1.65;;;35.70;28.90;;;;;;5032679;28;20033;-84
2023/08/01 08:44:24;;;;;;;5.20;1.63;;;36.00;28.10;;;;;;5030738;28;20043;-81
2023/08/01 08:46:54;;;;;;;6.88;1.70;;;36.00;28.00;;;;;;5048229;28;20033;-80
2023/08/01 08:49:26;;;;;;;7.88;1.90;;;35.90;27.80;;;;;;5033000;28;20041;-80
2023/08/01 08:51:54;;;;;;;5.63;1.65;;;35.90;27.50;;;;;;5041392;28;20032;-82
2023/08/01 08:54:20;;;;;;;6.53;1.38;;;35.50;27.90;;;;;;5036209;28;20104;-80
2023/08/01 08:56:46;;;;;;;5.18;1.40;;;35.50;28.70;;;;;;5044585;28;20120;-80
2023/08/01 08:59:12;;;;;;;4.43;1.70;;;35.60;28.00;;;;;;5048280;28;20051;-81
2023/08/01 09:01:39;;;;;;;4.50;1.73;;;35.50;28.50;;;;;;5036102;28;20083;-79
2023/08/01 09:04:06;;;;;;;3.78;1.40;;;35.60;28.40;;;;;;5042426;28;20124;-83
2023/08/01 09:06:44;;;;;;;3.53;1.67;;;35.20;28.70;;;;;;5029949;28;20095;-81
2023/08/01 09:09:12;;;;;;;4.43;1.50;;;35.10;29.50;;;;;;5030119;28;20053;-81
2023/08/01 09:11:48;;;;;;;4.13;1.65;;;35.10;29.20;;;;;;5026045;28;20025;-81
2023/08/01 09:14:15;;;;;;;2.25;1.35;;;34.80;29.10;;;;;;5028907;28;20871;-80
2023/08/01 09:16:41;;;;;;;16.48;1.27;;;34.80;29.90;;;;;;5038619;28;20037;-82
2023/08/01 09:19:08;;;;;;;7.78;1.92;;;34.70;29.10;;;;;;5027539;28;20025;-82
2023/08/01 09:21:35;;;;;;;6.47;2.10;;;34.70;29.30;;;;;;5027724;28;20042;-81
2023/08/01 09:24:13;;;;;;;3.92;1.58;;;34.70;29.50;;;;;;5025102;28;20414;-79
2023/08/01 09:26:39;;;;;;;4.45;1.73;;;34.80;29.60;;;;;;5026532;28;20327;-82
2023/08/01 09:29:05;;;;;;;5.40;1.77;;;35.00;29.30;;;;;;5038743;28;20514;-81
2023/08/01 09:31:33;;;;;;;2.75;1.30;;;35.40;28.70;;;;;;5027074;28;20030;-82
2023/08/01 09:34:00;;;;;;;3.65;1.65;;;35.60;28.60;;;;;;5025715;28;20104;-81
2023/08/01 09:36:26;;;;;;;3.08;1.50;;;36.10;27.90;;;;;;5047972;28;20036;-81
2023/08/01 09:39:02;;;;;;;5.55;1.52;;;36.40;27.50;;;;;;5047922;28;20021;-81
2023/08/01 09:41:31;;;;;;;4.97;1.42;;;36.80;27.60;;;;;;5048258;28;20029;-81
2023/08/01 09:43:58;;;;;;;7.85;1.98;;;36.90;27.10;;;;;;5048439;28;20104;-82
2023/08/01 09:46:24;;;;;;;5.03;1.27;;;37.00;26.80;;;;;;5046187;28;20037;-82
2023/08/01 09:48:50;;;;;;;2.17;0.95;;;36.60;27.30;;;;;;5048143;28;20029;-82
2023/08/01 09:51:17;;;;;;;2.35;1.15;;;36.40;27.30;;;;;;5044370;28;20037;-82
2023/08/01 09:53:56;;;;;;;4.22;1.23;;;36.40;27.50;;;;;;5036741;28;20071;-82
2023/08/01 09:56:24;;;;;;;12.32;1.60;;;36.20;27.00;;;;;;5033565;28;20037;-82
2023/08/01 09:58:51;;;;;;;2.80;1.77;;;36.00;27.70;;;;;;5044013;28;20078;-85
2023/08/01 10:01:18;;;;;;;4.07;1.85;;;36.40;27.90;;;;;;5048014;28;20068;-85
2023/08/01 10:03:49;;;;;;;2.47;1.23;;;36.40;27.60;;;;;;5039459;28;20026;-85
2023/08/01 10:06:22;;;;;;;4.22;1.40;;;36.40;27.60;;;;;;5029101;28;20068;-84
2023/08/01 10:08:49;;;;;;;6.03;1.45;;;36.50;27.60;;;;;;5029220;28;20022;-83
2023/08/01 10:11:16;;;;;;;4.78;1.45;;;36.50;27.70;;;;;;5031482;28;20032;-84
2023/08/01 10:13:43;;;;;;;3.10;1.60;;;36.70;26.70;;;;;;5038031;28;20045;-84
2023/08/01 10:16:09;;;;;;;2.97;1.17;;;36.50;26.90;;;;;;5028711;28;20030;-85
2023/08/01 10:18:37;;;;;;;8.90;1.52;;;36.00;27.30;;;;;;5041647;28;20030;-84
2023/08/01 10:21:08;;;;;;;3.38;1.50;;;35.50;27.90;;;;;;5044750;28;20021;-85
2023/08/01 10:23:34;;;;;;;3.20;1.48;;;34.90;28.20;;;;;;5045116;28;20490;-85
2023/08/01 10:26:02;;;;;;;14.02;1.65;;;34.50;28.80;;;;;;5029820;28;20078;-85
2023/08/01 10:28:36;;;;;;;2.75;1.02;;;34.10;28.90;;;;;;5030211;28;20398;-84
2023/08/01 10:31:13;;;;;;;3.63;1.35;;;33.70;29.70;;;;;;5045158;28;20036;-83
2023/08/01 10:33:40;;;;;;;2.90;1.30;;;33.20;30.50;;;;;;5029726;28;20029;-85
2023/08/01 10:36:17;;;;;;;4.10;1.48;;;32.90;30.20;;;;;;5029716;28;20018;-83
2023/08/01 10:38:51;;;;;;;2.58;1.27;;;32.70;30.10;;;;;;5044571;28;20036;-84
2023/08/01 10:41:33;;;;;;;5.18;1.33;;;32.40;30.20;;;;;;5044827;28;20018;-83
2023/08/01 10:44:12;;;;;;;2.13;1.30;;;32.30;31.10;;;;;;5029375;28;20078;-85
2023/08/01 10:47:05;;;;;;;5.28;1.30;;;32.20;30.50;;;;;;5044609;28;20046;-85
2023/08/01 10:49:39;;;;;;;8.13;1.40;;;31.90;31.60;;;;;;5026533;28;20033;-85
2023/08/01 10:52:27;;;;;;;7.78;1.50;;;31.70;32.10;;;;;;5028053;28;20033;-84
2023/08/01 10:55:05;;;;;;;3.40;1.40;;;31.50;32.70;;;;;;5028412;28;20036;-81
2023/08/01 10:57:32;;;;;;;3.67;1.30;;;31.40;33.50;;;;;;5028705;28;20025;-82
2023/08/01 10:59:58;;;;;;;7.68;1.70;;;31.40;32.40;;;;;;5044149;28;20030;-86
2023/08/01 11:02:27;;;;;;;2.88;1.20;;;31.40;32.60;;;;;;5027623;28;20025;-84
2023/08/01 11:05:00;;;;;;;5.55;1.40;;;31.30;32.30;;;;;;5029727;28;20036;-84
2023/08/01 11:07:27;;;;;;;5.00;1.90;;;31.30;34.40;;;;;;5029236;28;20033;-85
2023/08/01 11:10:26;;;;;;;6.47;1.05;;;31.50;33.20;;;;;;5029415;28;20017;-84
2023/08/01 11:12:53;;;;;;;3.03;1.20;;;31.60;30.60;;;;;;5027281;28;20049;-85
2023/08/01 11:15:19;;;;;;;1.83;1.02;;;31.60;31.80;;;;;;5031250;28;20026;-84
2023/08/01 11:17:54;;;;;;;3.15;1.25;;;31.50;31.90;;;;;;5029782;28;20037;-82
2023/08/01 11:20:21;;;;;;;;;;;31.20;32.20;;;;;;5033985;28;20021;-86
2023/08/01 11:22:57;;;;;;;2.05;1.00;;;31.10;32.10;;;;;;5029961;28;19915;-84
2023/08/01 11:25:43;;;;;;;;;;;31.10;32.60;;;;;;5034693;28;20013;-85
2023/08/01 11:28:16;;;;;;;3.20;1.00;;;31.20;32.40;;;;;;5050050;28;19971;-83
2023/08/01 11:30:43;;;;;;;4.35;1.30;;;31.20;31.60;;;;;;5047581;28;20478;-85
2023/08/01 11:33:15;;;;;;;5.43;1.38;;;31.30;31.80;;;;;;5030956;28;20124;-85
2023/08/01 11:35:42;;;;;;;9.65;1.92;;;31.40;31.10;;;;;;5030613;28;20040;-85
2023/08/01 11:38:08;;;;;;;4.55;1.42;;;31.50;31.90;;;;;;5032462;28;20029;-84
2023/08/01 11:40:34;;;;;;;5.40;1.13;;;31.50;31.70;;;;;;5034676;28;20029;-85
2023/08/01 11:43:01;;;;;;;1.92;0.90;;;31.50;31.60;;;;;;5032950;28;20036;-85
2023/08/01 11:45:26;;;;;;;2.10;1.20;;;31.60;31.20;;;;;;5047989;28;20116;-86
2023/08/01 11:47:52;;;;;;;6.55;1.20;;;31.70;32.00;;;;;;5047140;28;20029;-85
2023/08/01 11:50:25;;;;;;;2.72;1.45;;;31.80;30.30;;;;;;5033583;28;20108;-85
2023/08/01 11:52:51;;;;;;;5.15;1.27;;;31.80;30.00;;;;;;5039623;28;20040;-84
2023/08/01 11:55:26;;;;;;;5.28;1.50;;;31.90;30.30;;;;;;5042504;28;20075;-85
2023/08/01 11:57:58;;;;;;;5.00;1.55;;;31.80;30.70;;;;;;5033153;28;20045;-84
2023/08/01 12:00:26;;;;;;;5.10;1.05;;;31.80;31.00;;;;;;5039603;28;20104;-84
2023/08/01 12:03:02;;;;;;;11.50;1.17;;;31.80;30.50;;;;;;5047696;28;20037;-84
2023/08/01 12:05:29;;;;;;;6.15;1.38;;;31.60;29.90;;;;;;5048582;28;20060;-84
2023/08/01 12:07:54;;;;;;;2.67;1.05;;;31.30;29.50;;;;;;5052003;28;20037;-84
2023/08/01 12:10:20;;;;;;;5.35;1.45;;;31.20;30.00;;;;;;5045592;28;20067;-84
2023/08/01 12:12:47;;;;;;;3.83;1.02;;;31.10;31.10;;;;;;5033174;28;20057;-85
2023/08/01 12:15:14;;;;;;;14.48;1.30;;;31.20;30.70;;;;;;5034954;28;20070;-86
2023/08/01 12:17:40;;;;;;;6.63;1.30;;;31.30;31.00;;;;;;5050211;28;20029;-84
2023/08/01 12:20:06;;;;;;;12.80;1.27;;;31.30;30.60;;;;;;5052853;28;20021;-83
2023/08/01 12:22:32;;;;;;;4.18;1.63;;;31.50;30.60;;;;;;5051728;28;20384;-83
2023/08/01 12:24:58;;;;;;;3.33;1.40;;;31.60;30.00;;;;;;5035072;28;20034;-85
2023/08/01 12:27:23;;;;;;;4.47;1.10;;;31.70;28.90;;;;;;5041031;28;20511;-85
2023/08/01 12:29:49;;;;;;;7.40;1.50;;;31.70;29.40;;;;;;5042342;28;20022;-84
2023/08/01 12:32:15;;;;;;;8.40;1.55;;;31.90;29.20;;;;;;5043746;28;20485;-85
2023/08/01 12:34:41;;;;;;;2.83;1.52;;;32.00;29.20;;;;;;5032159;28;20025;-85
2023/08/01 12:37:07;;;;;;;3.65;1.50;;;32.00;28.60;;;;;;5033650;28;20072;-84
2023/08/01 12:39:32;;;;;;;3.10;1.13;;;32.10;28.10;;;;;;5033453;28;20505;-84
2023/08/01 12:41:58;;;;;;;5.82;1.17;;;32.00;27.80;;;;;;5032134;28;20117;-84
2023/08/01 12:44:23;;;;;;;4.82;1.23;;;32.00;28.10;;;;;;5033534;28;20028;-83
2023/08/01 12:46:49;;;;;;;2.05;0.90;;;31.90;28.40;;;;;;5033459;28;20041;-85